Beulah, Kansas
Current Conditions -  °F | °C
As of 4:15 PM on Sunday 25 Jan 2015 (Local Time) from KPTS Reporting Station
Overcast Overcast  
Wind Chill: 36°   Ceiling: 2400
Heat Index: 42°   Visibility: 10mi
Dew Point: 34°   Wind: 12mph
Humidity: 71%   Direction: 340°NNW
Pressure: 29.96"   Gusts: 28mph
Location:  37.5057°N, 94.9338°W
Report Text: KPTS 252215Z AUTO 34010G24KT 10SM OVC024 06/01 A2996 RMK AO2 T00580010
Loading
Personal Weather Stations






























Interactive Weather Map New forecast layout! Learn more

10-Day Weather Forecast

Advertisements
Track Severe Weather on mobile